sensor_id;sensor_type;location;lat;lon;timestamp;temperature;humidity
65854;DHT22;52627;48.838;2.402;2023-02-11T00:01:28;7.26;70.90
65854;DHT22;52627;48.838;2.402;2023-02-11T00:03:58;7.26;70.90
65854;DHT22;52627;48.838;2.402;2023-02-11T00:06:27;7.24;70.89
65854;DHT22;52627;48.838;2.402;2023-02-11T00:08:56;7.23;70.90
65854;DHT22;52627;48.838;2.402;2023-02-11T00:11:24;7.20;70.98
65854;DHT22;52627;48.838;2.402;2023-02-11T00:13:57;7.17;71.00
65854;DHT22;52627;48.838;2.402;2023-02-11T00:16:29;7.16;71.07
65854;DHT22;52627;48.838;2.402;2023-02-11T00:18:58;7.14;71.10
65854;DHT22;52627;48.838;2.402;2023-02-11T00:21:27;7.13;71.10
65854;DHT22;52627;48.838;2.402;2023-02-11T00:23:55;7.12;71.10
65854;DHT22;52627;48.838;2.402;2023-02-11T00:26:26;7.10;71.10
65854;DHT22;52627;48.838;2.402;2023-02-11T00:28:57;7.09;71.10
65854;DHT22;52627;48.838;2.402;2023-02-11T00:31:26;7.08;71.19
65854;DHT22;52627;48.838;2.402;2023-02-11T00:33:55;7.05;71.28
65854;DHT22;52627;48.838;2.402;2023-02-11T00:36:23;7.04;71.30
65854;DHT22;52627;48.838;2.402;2023-02-11T00:38:53;7.01;71.37
65854;DHT22;52627;48.838;2.402;2023-02-11T00:41:22;6.96;71.44
65854;DHT22;52627;48.838;2.402;2023-02-11T00:43:50;6.95;71.48
65854;DHT22;52627;48.838;2.402;2023-02-11T00:46:19;6.92;71.52
65854;DHT22;52627;48.838;2.402;2023-02-11T00:48:48;6.89;71.56
65854;DHT22;52627;48.838;2.402;2023-02-11T00:51:17;6.86;71.71
65854;DHT22;52627;48.838;2.402;2023-02-11T00:53:45;6.81;71.79
65854;DHT22;52627;48.838;2.402;2023-02-11T00:56:12;6.77;71.74
65854;DHT22;52627;48.838;2.402;2023-02-11T00:58:40;6.75;71.75
65854;DHT22;52627;48.838;2.402;2023-02-11T01:01:07;6.73;71.72
65854;DHT22;52627;48.838;2.402;2023-02-11T01:03:35;6.72;71.72
65854;DHT22;52627;48.838;2.402;2023-02-11T01:06:02;6.70;71.73
65854;DHT22;52627;48.838;2.402;2023-02-11T01:08:31;6.70;71.71
65854;DHT22;52627;48.838;2.402;2023-02-11T01:11:00;6.69;71.75
65854;DHT22;52627;48.838;2.402;2023-02-11T01:13:32;6.68;71.80
65854;DHT22;52627;48.838;2.402;2023-02-11T01:16:05;6.65;71.85
65854;DHT22;52627;48.838;2.402;2023-02-11T01:18:34;6.65;71.89
65854;DHT22;52627;48.838;2.402;2023-02-11T01:21:02;6.64;71.97
65854;DHT22;52627;48.838;2.402;2023-02-11T01:23:30;6.60;72.03
65854;DHT22;52627;48.838;2.402;2023-02-11T01:25:58;6.59;72.09
65854;DHT22;52627;48.838;2.402;2023-02-11T01:28:26;6.57;72.10
65854;DHT22;52627;48.838;2.402;2023-02-11T01:30:55;6.57;72.10
65854;DHT22;52627;48.838;2.402;2023-02-11T01:33:23;6.55;72.10
65854;DHT22;52627;48.838;2.402;2023-02-11T01:35:51;6.53;72.20
65854;DHT22;52627;48.838;2.402;2023-02-11T01:38:20;6.49;72.30
65854;DHT22;52627;48.838;2.402;2023-02-11T01:40:52;6.45;72.31
65854;DHT22;52627;48.838;2.402;2023-02-11T01:43:26;6.41;72.44
65854;DHT22;52627;48.838;2.402;2023-02-11T01:48:49;6.33;72.60
65854;DHT22;52627;48.838;2.402;2023-02-11T01:51:29;6.29;72.70
65854;DHT22;52627;48.838;2.402;2023-02-11T01:54:07;6.26;72.80
65854;DHT22;52627;48.838;2.402;2023-02-11T01:56:56;6.25;72.79
65854;DHT22;52627;48.838;2.402;2023-02-11T02:08:20;6.14;73.00
65854;DHT22;52627;48.838;2.402;2023-02-11T02:10:57;6.13;73.06
65854;DHT22;52627;48.838;2.402;2023-02-11T02:13:27;6.11;73.05
65854;DHT22;52627;48.838;2.402;2023-02-11T02:16:01;6.11;73.09
65854;DHT22;52627;48.838;2.402;2023-02-11T02:27:39;6.11;73.16
65854;DHT22;52627;48.838;2.402;2023-02-11T02:36:12;6.07;73.30
65854;DHT22;52627;48.838;2.402;2023-02-11T02:41:34;6.01;73.51
65854;DHT22;52627;48.838;2.402;2023-02-11T02:44:04;5.98;73.63
65854;DHT22;52627;48.838;2.402;2023-02-11T02:46:33;5.95;73.76
65854;DHT22;52627;48.838;2.402;2023-02-11T02:49:02;5.91;73.79
65854;DHT22;52627;48.838;2.402;2023-02-11T02:51:45;5.90;73.80
65854;DHT22;52627;48.838;2.402;2023-02-11T03:01:04;5.84;73.90
65854;DHT22;52627;48.838;2.402;2023-02-11T03:04:01;5.85;73.92
65854;DHT22;52627;48.838;2.402;2023-02-11T03:07:23;5.84;74.00
65854;DHT22;52627;48.838;2.402;2023-02-11T03:10:28;5.83;74.00
65854;DHT22;52627;48.838;2.402;2023-02-11T03:13:03;5.82;74.00
65854;DHT22;52627;48.838;2.402;2023-02-11T03:15:33;5.81;74.04
65854;DHT22;52627;48.838;2.402;2023-02-11T03:18:06;5.79;74.08
65854;DHT22;52627;48.838;2.402;2023-02-11T03:20:39;5.79;74.01
65854;DHT22;52627;48.838;2.402;2023-02-11T03:23:15;5.79;74.03
65854;DHT22;52627;48.838;2.402;2023-02-11T03:25:50;5.78;74.09
65854;DHT22;52627;48.838;2.402;2023-02-11T03:28:40;5.76;74.15
65854;DHT22;52627;48.838;2.402;2023-02-11T03:31:31;5.75;74.12
65854;DHT22;52627;48.838;2.402;2023-02-11T03:39:18;5.63;74.35
65854;DHT22;52627;48.838;2.402;2023-02-11T03:41:50;5.61;74.36
65854;DHT22;52627;48.838;2.402;2023-02-11T03:44:21;5.60;74.39
65854;DHT22;52627;48.838;2.402;2023-02-11T03:46:54;5.57;74.40
65854;DHT22;52627;48.838;2.402;2023-02-11T03:49:22;5.60;74.40
65854;DHT22;52627;48.838;2.402;2023-02-11T03:51:52;5.58;74.42
65854;DHT22;52627;48.838;2.402;2023-02-11T03:54:27;5.59;74.41
65854;DHT22;52627;48.838;2.402;2023-02-11T03:56:57;5.59;74.47
65854;DHT22;52627;48.838;2.402;2023-02-11T03:59:27;5.59;74.44
65854;DHT22;52627;48.838;2.402;2023-02-11T04:01:54;5.58;74.49
65854;DHT22;52627;48.838;2.402;2023-02-11T04:04:23;5.56;74.51
65854;DHT22;52627;48.838;2.402;2023-02-11T04:06:51;5.56;74.60
65854;DHT22;52627;48.838;2.402;2023-02-11T04:09:18;5.55;74.60
65854;DHT22;52627;48.838;2.402;2023-02-11T04:11:46;5.56;74.56
65854;DHT22;52627;48.838;2.402;2023-02-11T04:14:13;5.56;74.53
65854;DHT22;52627;48.838;2.402;2023-02-11T04:16:40;5.56;74.56
65854;DHT22;52627;48.838;2.402;2023-02-11T04:19:08;5.56;74.60
65854;DHT22;52627;48.838;2.402;2023-02-11T04:21:36;5.53;74.61
65854;DHT22;52627;48.838;2.402;2023-02-11T04:24:03;5.50;74.68
65854;DHT22;52627;48.838;2.402;2023-02-11T04:26:31;5.49;74.70
65854;DHT22;52627;48.838;2.402;2023-02-11T04:28:59;5.49;74.71
65854;DHT22;52627;48.838;2.402;2023-02-11T04:31:26;5.44;74.81
65854;DHT22;52627;48.838;2.402;2023-02-11T04:33:54;5.40;74.80
65854;DHT22;52627;48.838;2.402;2023-02-11T04:36:22;5.38;74.80
65854;DHT22;52627;48.838;2.402;2023-02-11T04:38:50;5.35;74.81
65854;DHT22;52627;48.838;2.402;2023-02-11T04:41:17;5.33;74.80
65854;DHT22;52627;48.838;2.402;2023-02-11T04:43:45;5.33;74.80
65854;DHT22;52627;48.838;2.402;2023-02-11T04:46:12;5.30;74.87
65854;DHT22;52627;48.838;2.402;2023-02-11T04:48:40;5.28;74.90
65854;DHT22;52627;48.838;2.402;2023-02-11T04:51:07;5.26;74.90
65854;DHT22;52627;48.838;2.402;2023-02-11T04:53:35;5.27;74.90
65854;DHT22;52627;48.838;2.402;2023-02-11T04:56:02;5.25;74.95
65854;DHT22;52627;48.838;2.402;2023-02-11T04:58:30;5.25;74.91
65854;DHT22;52627;48.838;2.402;2023-02-11T05:01:07;5.25;74.99
65854;DHT22;52627;48.838;2.402;2023-02-11T05:03:38;5.22;75.07
65854;DHT22;52627;48.838;2.402;2023-02-11T05:06:06;5.17;75.10
65854;DHT22;52627;48.838;2.402;2023-02-11T05:08:35;5.11;75.14
65854;DHT22;52627;48.838;2.402;2023-02-11T05:11:02;5.07;75.22
65854;DHT22;52627;48.838;2.402;2023-02-11T05:13:30;5.01;75.26
65854;DHT22;52627;48.838;2.402;2023-02-11T05:15:58;4.98;75.30
65854;DHT22;52627;48.838;2.402;2023-02-11T05:18:25;4.95;75.30
65854;DHT22;52627;48.838;2.402;2023-02-11T05:20:53;4.95;75.30
65854;DHT22;52627;48.838;2.402;2023-02-11T05:23:20;4.94;75.30
65854;DHT22;52627;48.838;2.402;2023-02-11T05:25:48;4.95;75.30
65854;DHT22;52627;48.838;2.402;2023-02-11T05:28:16;4.94;75.30
65854;DHT22;52627;48.838;2.402;2023-02-11T05:30:44;4.93;75.34
65854;DHT22;52627;48.838;2.402;2023-02-11T05:33:12;4.89;75.50
65854;DHT22;52627;48.838;2.402;2023-02-11T05:35:39;4.85;75.64
65854;DHT22;52627;48.838;2.402;2023-02-11T05:38:07;4.80;75.70
65854;DHT22;52627;48.838;2.402;2023-02-11T05:40:34;4.79;75.68
65854;DHT22;52627;48.838;2.402;2023-02-11T05:43:01;4.79;75.66
65854;DHT22;52627;48.838;2.402;2023-02-11T05:45:29;4.80;75.60
65854;DHT22;52627;48.838;2.402;2023-02-11T05:47:56;4.81;75.57
65854;DHT22;52627;48.838;2.402;2023-02-11T05:50:24;4.82;75.52
65854;DHT22;52627;48.838;2.402;2023-02-11T05:52:52;4.82;75.58
65854;DHT22;52627;48.838;2.402;2023-02-11T05:55:19;4.81;75.63
65854;DHT22;52627;48.838;2.402;2023-02-11T05:57:47;4.78;75.69
65854;DHT22;52627;48.838;2.402;2023-02-11T06:00:14;4.76;75.77
65854;DHT22;52627;48.838;2.402;2023-02-11T06:02:42;4.75;75.85
65854;DHT22;52627;48.838;2.402;2023-02-11T06:05:10;4.72;75.90
65854;DHT22;52627;48.838;2.402;2023-02-11T06:07:37;4.70;75.89
65854;DHT22;52627;48.838;2.402;2023-02-11T06:10:05;4.71;75.87
65854;DHT22;52627;48.838;2.402;2023-02-11T06:12:34;4.71;75.86
65854;DHT22;52627;48.838;2.402;2023-02-11T06:15:04;4.71;75.86
65854;DHT22;52627;48.838;2.402;2023-02-11T06:17:32;4.72;75.84
65854;DHT22;52627;48.838;2.402;2023-02-11T06:20:00;4.71;75.90
65854;DHT22;52627;48.838;2.402;2023-02-11T06:22:28;4.69;75.96
65854;DHT22;52627;48.838;2.402;2023-02-11T06:24:56;4.68;76.00
65854;DHT22;52627;48.838;2.402;2023-02-11T06:27:28;4.67;76.00
65854;DHT22;52627;48.838;2.402;2023-02-11T06:29:56;4.65;76.06
65854;DHT22;52627;48.838;2.402;2023-02-11T06:32:23;4.66;76.10
65854;DHT22;52627;48.838;2.402;2023-02-11T06:35:12;4.65;76.10
65854;DHT22;52627;48.838;2.402;2023-02-11T06:37:41;4.65;76.12
65854;DHT22;52627;48.838;2.402;2023-02-11T06:40:09;4.64;76.18
65854;DHT22;52627;48.838;2.402;2023-02-11T06:42:38;4.64;76.20
65854;DHT22;52627;48.838;2.402;2023-02-11T06:45:06;4.62;76.15
65854;DHT22;52627;48.838;2.402;2023-02-11T06:47:35;4.61;76.16
65854;DHT22;52627;48.838;2.402;2023-02-11T06:50:03;4.58;76.28
65854;DHT22;52627;48.838;2.402;2023-02-11T06:52:33;4.53;76.30
65854;DHT22;52627;48.838;2.402;2023-02-11T06:55:01;4.51;76.30
65854;DHT22;52627;48.838;2.402;2023-02-11T06:57:29;4.47;76.31
65854;DHT22;52627;48.838;2.402;2023-02-11T06:59:57;4.43;76.36
65854;DHT22;52627;48.838;2.402;2023-02-11T07:02:24;4.38;76.49
65854;DHT22;52627;48.838;2.402;2023-02-11T07:04:52;4.31;76.57
65854;DHT22;52627;48.838;2.402;2023-02-11T07:07:19;4.29;76.56
65854;DHT22;52627;48.838;2.402;2023-02-11T07:09:46;4.31;76.52
65854;DHT22;52627;48.838;2.402;2023-02-11T07:12:14;4.32;76.51
65854;DHT22;52627;48.838;2.402;2023-02-11T07:14:41;4.31;76.57
65854;DHT22;52627;48.838;2.402;2023-02-11T07:17:09;4.31;76.59
65854;DHT22;52627;48.838;2.402;2023-02-11T07:19:36;4.33;76.58
65854;DHT22;52627;48.838;2.402;2023-02-11T07:22:04;4.35;76.57
65854;DHT22;52627;48.838;2.402;2023-02-11T07:24:31;4.36;76.53
65854;DHT22;52627;48.838;2.402;2023-02-11T07:26:59;4.37;76.59
65854;DHT22;52627;48.838;2.402;2023-02-11T07:29:26;4.38;76.59
65854;DHT22;52627;48.838;2.402;2023-02-11T07:31:54;4.41;76.57
65854;DHT22;52627;48.838;2.402;2023-02-11T07:34:21;4.43;76.63
65854;DHT22;52627;48.838;2.402;2023-02-11T07:36:49;4.41;76.70
65854;DHT22;52627;48.838;2.402;2023-02-11T07:39:16;4.41;76.70
65854;DHT22;52627;48.838;2.402;2023-02-11T07:41:44;4.42;76.70
65854;DHT22;52627;48.838;2.402;2023-02-11T07:44:14;4.44;76.69
65854;DHT22;52627;48.838;2.402;2023-02-11T07:46:41;4.45;76.61
65854;DHT22;52627;48.838;2.402;2023-02-11T07:49:10;4.46;76.62
65854;DHT22;52627;48.838;2.402;2023-02-11T07:51:38;4.45;76.68
65854;DHT22;52627;48.838;2.402;2023-02-11T07:54:06;4.46;76.70
65854;DHT22;52627;48.838;2.402;2023-02-11T07:56:33;4.47;76.70
65854;DHT22;52627;48.838;2.402;2023-02-11T07:59:01;4.49;76.70
65854;DHT22;52627;48.838;2.402;2023-02-11T08:01:29;4.49;76.71
65854;DHT22;52627;48.838;2.402;2023-02-11T08:03:58;4.49;76.74
65854;DHT22;52627;48.838;2.402;2023-02-11T08:06:28;4.51;76.73
65854;DHT22;52627;48.838;2.402;2023-02-11T08:09:05;4.54;76.71
65854;DHT22;52627;48.838;2.402;2023-02-11T08:11:33;4.57;76.70
65854;DHT22;52627;48.838;2.402;2023-02-11T08:14:01;4.60;76.70
65854;DHT22;52627;48.838;2.402;2023-02-11T08:16:31;4.65;76.70
65854;DHT22;52627;48.838;2.402;2023-02-11T08:19:05;4.73;76.68
65854;DHT22;52627;48.838;2.402;2023-02-11T08:21:37;4.81;76.62
65854;DHT22;52627;48.838;2.402;2023-02-11T08:24:06;4.87;76.58
65854;DHT22;52627;48.838;2.402;2023-02-11T08:26:34;4.92;76.54
65854;DHT22;52627;48.838;2.402;2023-02-11T08:29:04;4.95;76.50
65854;DHT22;52627;48.838;2.402;2023-02-11T08:31:38;4.95;76.43
65854;DHT22;52627;48.838;2.402;2023-02-11T08:34:08;4.98;76.45
65854;DHT22;52627;48.838;2.402;2023-02-11T08:36:37;5.04;76.42
65854;DHT22;52627;48.838;2.402;2023-02-11T08:39:08;5.11;76.40
65854;DHT22;52627;48.838;2.402;2023-02-11T08:41:50;5.14;76.38
65854;DHT22;52627;48.838;2.402;2023-02-11T08:44:20;5.23;76.37
65854;DHT22;52627;48.838;2.402;2023-02-11T08:46:48;5.34;76.29
65854;DHT22;52627;48.838;2.402;2023-02-11T08:49:16;5.45;76.21
65854;DHT22;52627;48.838;2.402;2023-02-11T08:51:45;5.54;76.20
65854;DHT22;52627;48.838;2.402;2023-02-11T08:54:13;5.63;76.08
65854;DHT22;52627;48.838;2.402;2023-02-11T08:56:42;5.71;76.05
65854;DHT22;52627;48.838;2.402;2023-02-11T08:59:12;5.81;76.07
65854;DHT22;52627;48.838;2.402;2023-02-11T09:01:41;5.92;75.92
65854;DHT22;52627;48.838;2.402;2023-02-11T09:04:10;5.98;75.83
65854;DHT22;52627;48.838;2.402;2023-02-11T09:06:37;6.08;75.80
65854;DHT22;52627;48.838;2.402;2023-02-11T09:09:05;6.19;75.72
65854;DHT22;52627;48.838;2.402;2023-02-11T09:11:36;6.26;75.59
65854;DHT22;52627;48.838;2.402;2023-02-11T09:14:04;6.38;75.56
65854;DHT22;52627;48.838;2.402;2023-02-11T09:16:32;6.47;75.46
65854;DHT22;52627;48.838;2.402;2023-02-11T09:19:03;6.58;75.48
65854;DHT22;52627;48.838;2.402;2023-02-11T09:21:31;6.74;75.37
65854;DHT22;52627;48.838;2.402;2023-02-11T09:23:59;6.97;75.32
65854;DHT22;52627;48.838;2.402;2023-02-11T09:26:28;7.24;75.18
65854;DHT22;52627;48.838;2.402;2023-02-11T09:28:58;7.54;75.01
65854;DHT22;52627;48.838;2.402;2023-02-11T09:31:27;7.89;74.84
65854;DHT22;52627;48.838;2.402;2023-02-11T09:33:58;8.32;74.75
65854;DHT22;52627;48.838;2.402;2023-02-11T09:36:29;8.82;74.64
65854;DHT22;52627;48.838;2.402;2023-02-11T09:38:58;9.22;73.69
65854;DHT22;52627;48.838;2.402;2023-02-11T09:41:41;9.49;73.30
65854;DHT22;52627;48.838;2.402;2023-02-11T09:44:34;10.01;73.23
65854;DHT22;52627;48.838;2.402;2023-02-11T09:47:04;10.51;73.15
65854;DHT22;52627;48.838;2.402;2023-02-11T09:49:49;11.06;72.89
65854;DHT22;52627;48.838;2.402;2023-02-11T09:55:08;12.09;72.04
65854;DHT22;52627;48.838;2.402;2023-02-11T09:57:45;12.57;71.46
65854;DHT22;52627;48.838;2.402;2023-02-11T10:02:56;13.22;69.97
65854;DHT22;52627;48.838;2.402;2023-02-11T10:08:49;13.86;69.20
65854;DHT22;52627;48.838;2.402;2023-02-11T10:11:46;14.16;68.53
65854;DHT22;52627;48.838;2.402;2023-02-11T10:17:55;14.99;67.64
65854;DHT22;52627;48.838;2.402;2023-02-11T10:23:30;15.49;65.56
65854;DHT22;52627;48.838;2.402;2023-02-11T10:26:12;15.55;65.47
65854;DHT22;52627;48.838;2.402;2023-02-11T10:28:48;15.73;64.77
65854;DHT22;52627;48.838;2.402;2023-02-11T10:31:23;15.83;64.27
65854;DHT22;52627;48.838;2.402;2023-02-11T10:34:05;15.99;63.84
65854;DHT22;52627;48.838;2.402;2023-02-11T10:36:37;16.25;63.30
65854;DHT22;52627;48.838;2.402;2023-02-11T10:39:17;16.43;62.67
65854;DHT22;52627;48.838;2.402;2023-02-11T10:41:53;16.57;61.89
65854;DHT22;52627;48.838;2.402;2023-02-11T10:47:01;16.86;60.75
65854;DHT22;52627;48.838;2.402;2023-02-11T10:49:38;16.90;59.84
65854;DHT22;52627;48.838;2.402;2023-02-11T10:52:12;16.79;58.78
65854;DHT22;52627;48.838;2.402;2023-02-11T10:55:00;16.80;58.88
65854;DHT22;52627;48.838;2.402;2023-02-11T10:57:36;16.92;58.28
65854;DHT22;52627;48.838;2.402;2023-02-11T11:02:44;17.09;57.26
65854;DHT22;52627;48.838;2.402;2023-02-11T11:05:28;17.13;56.79
65854;DHT22;52627;48.838;2.402;2023-02-11T11:08:00;17.15;56.29
65854;DHT22;52627;48.838;2.402;2023-02-11T11:10:36;17.22;55.98
65854;DHT22;52627;48.838;2.402;2023-02-11T11:13:22;17.31;55.44
65854;DHT22;52627;48.838;2.402;2023-02-11T11:18:40;17.43;54.80
65854;DHT22;52627;48.838;2.402;2023-02-11T11:21:22;17.47;54.44
65854;DHT22;52627;48.838;2.402;2023-02-11T11:23:57;17.48;53.58
65854;DHT22;52627;48.838;2.402;2023-02-11T11:26:28;17.44;53.26
65854;DHT22;52627;48.838;2.402;2023-02-11T11:29:12;17.43;52.92
65854;DHT22;52627;48.838;2.402;2023-02-11T11:31:49;17.49;52.82
65854;DHT22;52627;48.838;2.402;2023-02-11T11:36:57;17.08;52.09
65854;DHT22;52627;48.838;2.402;2023-02-11T11:39:31;16.87;52.08
65854;DHT22;52627;48.838;2.402;2023-02-11T11:42:19;16.71;51.91
65854;DHT22;52627;48.838;2.402;2023-02-11T11:44:59;16.46;51.53
65854;DHT22;52627;48.838;2.402;2023-02-11T11:47:29;16.22;51.19
65854;DHT22;52627;48.838;2.402;2023-02-11T11:50:08;15.89;51.15
65854;DHT22;52627;48.838;2.402;2023-02-11T11:55:35;15.69;51.50
65854;DHT22;52627;48.838;2.402;2023-02-11T11:58:09;15.63;51.48
65854;DHT22;52627;48.838;2.402;2023-02-11T12:06:34;15.51;51.72
65854;DHT22;52627;48.838;2.402;2023-02-11T12:09:27;15.55;51.55
65854;DHT22;52627;48.838;2.402;2023-02-11T12:12:24;15.38;51.70
65854;DHT22;52627;48.838;2.402;2023-02-11T12:39:32;15.23;52.57
65854;DHT22;52627;48.838;2.402;2023-02-11T12:48:16;14.92;52.79
65854;DHT22;52627;48.838;2.402;2023-02-11T12:54:43;14.72;53.04
65854;DHT22;52627;48.838;2.402;2023-02-11T13:02:41;14.24;53.31
65854;DHT22;52627;48.838;2.402;2023-02-11T13:08:20;13.78;53.87
65854;DHT22;52627;48.838;2.402;2023-02-11T13:11:17;13.62;54.05
65854;DHT22;52627;48.838;2.402;2023-02-11T13:16:58;13.63;54.50
65854;DHT22;52627;48.838;2.402;2023-02-11T13:22:16;13.64;54.89
65854;DHT22;52627;48.838;2.402;2023-02-11T13:33:02;13.48;55.51
65854;DHT22;52627;48.838;2.402;2023-02-11T13:35:36;13.52;55.64
65854;DHT22;52627;48.838;2.402;2023-02-11T13:38:16;13.62;55.74
65854;DHT22;52627;48.838;2.402;2023-02-11T13:40:58;13.72;55.86
65854;DHT22;52627;48.838;2.402;2023-02-11T13:43:29;13.70;55.95
65854;DHT22;52627;48.838;2.402;2023-02-11T13:46:00;13.73;56.00
65854;DHT22;52627;48.838;2.402;2023-02-11T13:48:34;13.82;56.01
65854;DHT22;52627;48.838;2.402;2023-02-11T13:51:05;13.87;56.04
65854;DHT22;52627;48.838;2.402;2023-02-11T13:53:55;13.90;56.11
65854;DHT22;52627;48.838;2.402;2023-02-11T13:56:27;13.95;56.17
65854;DHT22;52627;48.838;2.402;2023-02-11T13:59:01;13.95;56.21
65854;DHT22;52627;48.838;2.402;2023-02-11T14:10:53;14.00;56.44
65854;DHT22;52627;48.838;2.402;2023-02-11T14:13:30;14.04;56.48
65854;DHT22;52627;48.838;2.402;2023-02-11T14:21:42;14.05;56.57
65854;DHT22;52627;48.838;2.402;2023-02-11T14:35:31;13.94;56.80
65854;DHT22;52627;48.838;2.402;2023-02-11T14:43:46;13.68;57.04
65854;DHT22;52627;48.838;2.402;2023-02-11T14:46:21;13.62;57.11
65854;DHT22;52627;48.838;2.402;2023-02-11T14:48:51;13.60;57.19
65854;DHT22;52627;48.838;2.402;2023-02-11T14:51:28;13.59;57.24
65854;DHT22;52627;48.838;2.402;2023-02-11T14:54:06;13.56;57.30
65854;DHT22;52627;48.838;2.402;2023-02-11T14:56:41;13.52;57.36
65854;DHT22;52627;48.838;2.402;2023-02-11T14:59:20;13.49;57.42
65854;DHT22;52627;48.838;2.402;2023-02-11T15:01:50;13.45;57.53
65854;DHT22;52627;48.838;2.402;2023-02-11T15:04:23;13.41;57.61
65854;DHT22;52627;48.838;2.402;2023-02-11T15:06:58;13.36;57.67
65854;DHT22;52627;48.838;2.402;2023-02-11T15:09:48;13.32;57.73
65854;DHT22;52627;48.838;2.402;2023-02-11T15:12:27;13.28;57.79
65854;DHT22;52627;48.838;2.402;2023-02-11T15:14:56;13.28;57.90
65854;DHT22;52627;48.838;2.402;2023-02-11T15:17:26;13.24;58.00
65854;DHT22;52627;48.838;2.402;2023-02-11T15:19:58;13.17;58.10
65854;DHT22;52627;48.838;2.402;2023-02-11T15:22:28;13.18;58.19
65854;DHT22;52627;48.838;2.402;2023-02-11T15:25:08;13.19;58.21
65854;DHT22;52627;48.838;2.402;2023-02-11T15:27:40;13.11;58.34
65854;DHT22;52627;48.838;2.402;2023-02-11T15:30:22;12.93;58.58
65854;DHT22;52627;48.838;2.402;2023-02-11T15:32:57;12.82;58.72
65854;DHT22;52627;48.838;2.402;2023-02-11T15:35:32;12.80;58.85
65854;DHT22;52627;48.838;2.402;2023-02-11T15:38:04;12.80;58.90
65854;DHT22;52627;48.838;2.402;2023-02-11T15:40:32;12.78;59.00
65854;DHT22;52627;48.838;2.402;2023-02-11T15:43:06;12.77;59.07
65854;DHT22;52627;48.838;2.402;2023-02-11T15:48:13;12.67;59.34
65854;DHT22;52627;48.838;2.402;2023-02-11T15:50:53;12.61;59.47
65854;DHT22;52627;48.838;2.402;2023-02-11T15:53:29;12.57;59.58
65854;DHT22;52627;48.838;2.402;2023-02-11T15:56:12;12.55;59.71
65854;DHT22;52627;48.838;2.402;2023-02-11T15:58:46;12.52;59.80
65854;DHT22;52627;48.838;2.402;2023-02-11T16:01:15;12.44;59.95
65854;DHT22;52627;48.838;2.402;2023-02-11T16:03:43;12.35;60.06
65854;DHT22;52627;48.838;2.402;2023-02-11T16:06:26;12.31;60.18
65854;DHT22;52627;48.838;2.402;2023-02-11T16:14:27;12.08;60.69
65854;DHT22;52627;48.838;2.402;2023-02-11T16:19:42;12.00;60.89
65854;DHT22;52627;48.838;2.402;2023-02-11T16:22:15;11.99;60.98
65854;DHT22;52627;48.838;2.402;2023-02-11T16:24:51;11.98;61.10
65854;DHT22;52627;48.838;2.402;2023-02-11T16:27:22;11.96;61.27
65854;DHT22;52627;48.838;2.402;2023-02-11T16:30:04;11.92;61.42
65854;DHT22;52627;48.838;2.402;2023-02-11T16:32:47;11.78;61.63
65854;DHT22;52627;48.838;2.402;2023-02-11T16:35:15;11.65;61.83
65854;DHT22;52627;48.838;2.402;2023-02-11T16:37:42;11.56;62.05
65854;DHT22;52627;48.838;2.402;2023-02-11T16:40:10;11.49;62.20
65854;DHT22;52627;48.838;2.402;2023-02-11T16:42:38;11.46;62.34
65854;DHT22;52627;48.838;2.402;2023-02-11T16:45:06;11.45;62.40
65854;DHT22;52627;48.838;2.402;2023-02-11T16:47:35;11.44;62.66
65854;DHT22;52627;48.838;2.402;2023-02-11T16:50:07;11.40;62.84
65854;DHT22;52627;48.838;2.402;2023-02-11T16:52:37;11.37;63.05
65854;DHT22;52627;48.838;2.402;2023-02-11T16:55:05;11.29;63.39
65854;DHT22;52627;48.838;2.402;2023-02-11T16:57:32;11.22;63.53
65854;DHT22;52627;48.838;2.402;2023-02-11T17:00:00;11.20;63.57
65854;DHT22;52627;48.838;2.402;2023-02-11T17:02:29;11.20;63.69
65854;DHT22;52627;48.838;2.402;2023-02-11T17:05:01;11.21;63.79
65854;DHT22;52627;48.838;2.402;2023-02-11T17:07:34;11.21;63.98
65854;DHT22;52627;48.838;2.402;2023-02-11T17:10:02;11.22;63.97
65854;DHT22;52627;48.838;2.402;2023-02-11T17:12:29;11.23;64.10
65854;DHT22;52627;48.838;2.402;2023-02-11T17:14:57;11.25;64.21
65854;DHT22;52627;48.838;2.402;2023-02-11T17:17:24;11.24;64.32
65854;DHT22;52627;48.838;2.402;2023-02-11T17:19:52;11.22;64.38
65854;DHT22;52627;48.838;2.402;2023-02-11T17:22:19;11.22;64.46
65854;DHT22;52627;48.838;2.402;2023-02-11T17:24:47;11.21;64.49
65854;DHT22;52627;48.838;2.402;2023-02-11T17:27:14;11.24;64.50
65854;DHT22;52627;48.838;2.402;2023-02-11T17:29:42;11.26;64.58
65854;DHT22;52627;48.838;2.402;2023-02-11T17:32:09;11.26;64.61
65854;DHT22;52627;48.838;2.402;2023-02-11T17:34:37;11.26;64.72
65854;DHT22;52627;48.838;2.402;2023-02-11T17:37:04;11.24;64.84
65854;DHT22;52627;48.838;2.402;2023-02-11T17:39:35;11.21;64.98
65854;DHT22;52627;48.838;2.402;2023-02-11T17:42:05;11.15;65.16
65854;DHT22;52627;48.838;2.402;2023-02-11T17:44:33;11.07;65.37
65854;DHT22;52627;48.838;2.402;2023-02-11T17:47:00;11.02;65.51
65854;DHT22;52627;48.838;2.402;2023-02-11T17:49:28;10.93;65.67
65854;DHT22;52627;48.838;2.402;2023-02-11T17:51:56;10.91;65.66
65854;DHT22;52627;48.838;2.402;2023-02-11T17:54:23;10.92;65.62
65854;DHT22;52627;48.838;2.402;2023-02-11T17:56:52;10.96;65.64
65854;DHT22;52627;48.838;2.402;2023-02-11T17:59:24;10.98;65.73
65854;DHT22;52627;48.838;2.402;2023-02-11T18:01:52;10.98;65.80
65854;DHT22;52627;48.838;2.402;2023-02-11T18:04:20;10.98;65.82
65854;DHT22;52627;48.838;2.402;2023-02-11T18:06:47;10.98;65.97
65854;DHT22;52627;48.838;2.402;2023-02-11T18:09:16;10.95;66.16
65854;DHT22;52627;48.838;2.402;2023-02-11T18:11:43;10.87;66.30
65854;DHT22;52627;48.838;2.402;2023-02-11T18:14:11;10.83;66.30
65854;DHT22;52627;48.838;2.402;2023-02-11T18:16:39;10.85;66.30
65854;DHT22;52627;48.838;2.402;2023-02-11T18:19:09;10.88;66.30
65854;DHT22;52627;48.838;2.402;2023-02-11T18:21:38;10.92;66.32
65854;DHT22;52627;48.838;2.402;2023-02-11T18:24:09;10.94;66.41
65854;DHT22;52627;48.838;2.402;2023-02-11T18:26:36;10.95;66.45
65854;DHT22;52627;48.838;2.402;2023-02-11T18:29:04;10.96;66.56
65854;DHT22;52627;48.838;2.402;2023-02-11T18:31:33;10.93;66.70
65854;DHT22;52627;48.838;2.402;2023-02-11T18:34:04;10.92;66.71
65854;DHT22;52627;48.838;2.402;2023-02-11T18:36:33;10.91;66.83
65854;DHT22;52627;48.838;2.402;2023-02-11T18:39:02;10.86;66.90
65854;DHT22;52627;48.838;2.402;2023-02-11T18:41:31;10.86;66.93
65854;DHT22;52627;48.838;2.402;2023-02-11T18:43:58;10.88;66.99
65854;DHT22;52627;48.838;2.402;2023-02-11T18:46:29;10.89;66.99
65854;DHT22;52627;48.838;2.402;2023-02-11T18:48:57;10.93;67.01
65854;DHT22;52627;48.838;2.402;2023-02-11T18:51:25;10.92;67.10
65854;DHT22;52627;48.838;2.402;2023-02-11T18:53:52;10.93;67.28
65854;DHT22;52627;48.838;2.402;2023-02-11T18:56:21;10.91;67.44
65854;DHT22;52627;48.838;2.402;2023-02-11T18:58:50;10.91;67.66
65854;DHT22;52627;48.838;2.402;2023-02-11T19:01:18;10.88;67.81
65854;DHT22;52627;48.838;2.402;2023-02-11T19:03:50;10.83;67.99